sensor_id;sensor_type;location;lat;lon;timestamp;P1;durP1;ratioP1;P2;durP2;ratioP2
37379;SDS011;23252;-33.992;18.480;2023-03-12T00:01:54;19.50;;;3.45;;
37379;SDS011;23252;-33.992;18.480;2023-03-12T00:04:21;21.85;;;2.95;;
37379;SDS011;23252;-33.992;18.480;2023-03-12T00:06:47;12.68;;;2.45;;
37379;SDS011;23252;-33.992;18.480;2023-03-12T00:09:14;17.77;;;3.23;;
37379;SDS011;23252;-33.992;18.480;2023-03-12T00:11:40;18.37;;;3.43;;
37379;SDS011;23252;-33.992;18.480;2023-03-12T00:14:07;15.23;;;3.30;;
37379;SDS011;23252;-33.992;18.480;2023-03-12T00:16:34;17.53;;;3.00;;
37379;SDS011;23252;-33.992;18.480;2023-03-12T00:19:01;21.37;;;3.10;;
37379;SDS011;23252;-33.992;18.480;2023-03-12T00:21:27;15.05;;;2.58;;
37379;SDS011;23252;-33.992;18.480;2023-03-12T00:23:54;17.37;;;3.53;;
37379;SDS011;23252;-33.992;18.480;2023-03-12T00:26:20;23.53;;;2.40;;
37379;SDS011;23252;-33.992;18.480;2023-03-12T00:28:48;15.95;;;2.30;;
37379;SDS011;23252;-33.992;18.480;2023-03-12T00:31:22;15.27;;;2.50;;
37379;SDS011;23252;-33.992;18.480;2023-03-12T00:33:52;20.05;;;2.70;;
37379;SDS011;23252;-33.992;18.480;2023-03-12T00:36:20;15.73;;;3.35;;
37379;SDS011;23252;-33.992;18.480;2023-03-12T00:38:49;13.02;;;2.45;;
37379;SDS011;23252;-33.992;18.480;2023-03-12T00:41:16;14.23;;;3.22;;
37379;SDS011;23252;-33.992;18.480;2023-03-12T00:43:46;15.95;;;3.42;;
37379;SDS011;23252;-33.992;18.480;2023-03-12T00:46:13;15.07;;;2.83;;
37379;SDS011;23252;-33.992;18.480;2023-03-12T00:48:40;16.30;;;2.40;;
37379;SDS011;23252;-33.992;18.480;2023-03-12T00:51:07;15.77;;;2.37;;
37379;SDS011;23252;-33.992;18.480;2023-03-12T00:53:34;18.13;;;2.35;;
37379;SDS011;23252;-33.992;18.480;2023-03-12T00:56:01;13.45;;;2.50;;
37379;SDS011;23252;-33.992;18.480;2023-03-12T00:58:28;24.15;;;2.40;;
37379;SDS011;23252;-33.992;18.480;2023-03-12T01:00:55;16.40;;;2.55;;
37379;SDS011;23252;-33.992;18.480;2023-03-12T01:03:21;16.55;;;2.28;;
37379;SDS011;23252;-33.992;18.480;2023-03-12T01:05:48;13.75;;;1.70;;
37379;SDS011;23252;-33.992;18.480;2023-03-12T01:08:19;16.20;;;1.70;;
37379;SDS011;23252;-33.992;18.480;2023-03-12T01:10:46;16.83;;;2.35;;
37379;SDS011;23252;-33.992;18.480;2023-03-12T01:13:13;12.67;;;1.37;;
37379;SDS011;23252;-33.992;18.480;2023-03-12T01:15:39;13.43;;;1.50;;
37379;SDS011;23252;-33.992;18.480;2023-03-12T01:18:06;14.93;;;2.17;;
37379;SDS011;23252;-33.992;18.480;2023-03-12T01:20:33;14.45;;;2.30;;
37379;SDS011;23252;-33.992;18.480;2023-03-12T01:23:00;15.40;;;1.98;;
37379;SDS011;23252;-33.992;18.480;2023-03-12T01:25:27;12.27;;;2.10;;
37379;SDS011;23252;-33.992;18.480;2023-03-12T01:27:53;13.00;;;1.70;;
37379;SDS011;23252;-33.992;18.480;2023-03-12T01:30:20;14.00;;;1.93;;
37379;SDS011;23252;-33.992;18.480;2023-03-12T01:32:47;14.70;;;1.85;;
37379;SDS011;23252;-33.992;18.480;2023-03-12T01:35:14;12.90;;;1.87;;
37379;SDS011;23252;-33.992;18.480;2023-03-12T01:37:40;16.40;;;2.13;;
37379;SDS011;23252;-33.992;18.480;2023-03-12T01:40:09;14.05;;;2.38;;
37379;SDS011;23252;-33.992;18.480;2023-03-12T01:42:40;17.92;;;2.15;;
37379;SDS011;23252;-33.992;18.480;2023-03-12T01:48:12;13.32;;;2.40;;
37379;SDS011;23252;-33.992;18.480;2023-03-12T01:50:38;13.48;;;1.85;;
37379;SDS011;23252;-33.992;18.480;2023-03-12T01:53:05;17.00;;;2.30;;
37379;SDS011;23252;-33.992;18.480;2023-03-12T01:55:32;19.35;;;2.28;;
37379;SDS011;23252;-33.992;18.480;2023-03-12T01:57:58;18.25;;;2.10;;
37379;SDS011;23252;-33.992;18.480;2023-03-12T02:00:27;14.23;;;2.15;;
37379;SDS011;23252;-33.992;18.480;2023-03-12T02:02:54;16.48;;;2.58;;
37379;SDS011;23252;-33.992;18.480;2023-03-12T02:08:19;24.60;;;6.57;;
37379;SDS011;23252;-33.992;18.480;2023-03-12T02:10:49;17.85;;;6.35;;
37379;SDS011;23252;-33.992;18.480;2023-03-12T02:13:15;23.10;;;8.27;;
37379;SDS011;23252;-33.992;18.480;2023-03-12T02:15:42;30.85;;;7.40;;
37379;SDS011;23252;-33.992;18.480;2023-03-12T02:18:10;24.02;;;7.53;;
37379;SDS011;23252;-33.992;18.480;2023-03-12T02:23:37;16.25;;;5.60;;
37379;SDS011;23252;-33.992;18.480;2023-03-12T02:26:25;14.82;;;4.30;;
37379;SDS011;23252;-33.992;18.480;2023-03-12T02:28:53;21.23;;;4.90;;
37379;SDS011;23252;-33.992;18.480;2023-03-12T02:31:25;20.70;;;4.25;;
37379;SDS011;23252;-33.992;18.480;2023-03-12T02:33:56;16.30;;;3.90;;
37379;SDS011;23252;-33.992;18.480;2023-03-12T02:36:25;21.38;;;3.40;;
37379;SDS011;23252;-33.992;18.480;2023-03-12T02:38:53;21.65;;;3.10;;
37379;SDS011;23252;-33.992;18.480;2023-03-12T02:46:40;21.58;;;2.35;;
37379;SDS011;23252;-33.992;18.480;2023-03-12T02:49:10;16.75;;;2.58;;
37379;SDS011;23252;-33.992;18.480;2023-03-12T02:51:38;17.63;;;2.60;;
37379;SDS011;23252;-33.992;18.480;2023-03-12T02:54:05;13.82;;;2.08;;
37379;SDS011;23252;-33.992;18.480;2023-03-12T02:56:32;17.13;;;1.98;;
37379;SDS011;23252;-33.992;18.480;2023-03-12T02:58:59;14.32;;;2.45;;
37379;SDS011;23252;-33.992;18.480;2023-03-12T03:01:26;14.05;;;2.67;;
37379;SDS011;23252;-33.992;18.480;2023-03-12T03:03:53;19.25;;;2.85;;
37379;SDS011;23252;-33.992;18.480;2023-03-12T03:06:20;15.93;;;2.88;;
37379;SDS011;23252;-33.992;18.480;2023-03-12T03:08:46;14.70;;;2.63;;
37379;SDS011;23252;-33.992;18.480;2023-03-12T03:11:13;12.82;;;2.08;;
37379;SDS011;23252;-33.992;18.480;2023-03-12T03:13:39;14.10;;;2.27;;
37379;SDS011;23252;-33.992;18.480;2023-03-12T03:16:06;16.73;;;2.03;;
37379;SDS011;23252;-33.992;18.480;2023-03-12T03:18:33;13.40;;;2.13;;
37379;SDS011;23252;-33.992;18.480;2023-03-12T03:21:04;16.67;;;2.67;;
37379;SDS011;23252;-33.992;18.480;2023-03-12T03:23:32;13.70;;;2.22;;
37379;SDS011;23252;-33.992;18.480;2023-03-12T03:25:59;10.63;;;1.85;;
37379;SDS011;23252;-33.992;18.480;2023-03-12T03:28:26;14.32;;;2.17;;
37379;SDS011;23252;-33.992;18.480;2023-03-12T03:30:55;9.18;;;1.80;;
37379;SDS011;23252;-33.992;18.480;2023-03-12T03:33:25;15.75;;;2.17;;
37379;SDS011;23252;-33.992;18.480;2023-03-12T03:35:51;17.67;;;3.30;;
37379;SDS011;23252;-33.992;18.480;2023-03-12T03:38:20;14.32;;;2.03;;
37379;SDS011;23252;-33.992;18.480;2023-03-12T03:40:47;12.65;;;2.20;;
37379;SDS011;23252;-33.992;18.480;2023-03-12T03:43:14;16.40;;;1.70;;
37379;SDS011;23252;-33.992;18.480;2023-03-12T03:45:40;11.40;;;1.85;;
37379;SDS011;23252;-33.992;18.480;2023-03-12T03:48:09;11.80;;;2.10;;
37379;SDS011;23252;-33.992;18.480;2023-03-12T03:50:37;15.25;;;2.47;;
37379;SDS011;23252;-33.992;18.480;2023-03-12T03:53:04;14.38;;;2.00;;
37379;SDS011;23252;-33.992;18.480;2023-03-12T03:55:35;11.13;;;1.75;;
37379;SDS011;23252;-33.992;18.480;2023-03-12T03:58:02;12.60;;;1.60;;
37379;SDS011;23252;-33.992;18.480;2023-03-12T04:00:28;15.57;;;1.95;;
37379;SDS011;23252;-33.992;18.480;2023-03-12T04:02:55;11.02;;;1.50;;
37379;SDS011;23252;-33.992;18.480;2023-03-12T04:05:22;10.43;;;1.40;;
37379;SDS011;23252;-33.992;18.480;2023-03-12T04:07:51;14.13;;;1.45;;
37379;SDS011;23252;-33.992;18.480;2023-03-12T04:10:23;13.10;;;2.13;;
37379;SDS011;23252;-33.992;18.480;2023-03-12T04:12:50;16.30;;;2.38;;
37379;SDS011;23252;-33.992;18.480;2023-03-12T04:15:17;7.50;;;1.33;;
37379;SDS011;23252;-33.992;18.480;2023-03-12T04:17:43;9.23;;;1.53;;
37379;SDS011;23252;-33.992;18.480;2023-03-12T04:20:10;17.20;;;1.80;;
37379;SDS011;23252;-33.992;18.480;2023-03-12T04:22:37;5.70;;;1.15;;
37379;SDS011;23252;-33.992;18.480;2023-03-12T04:25:04;7.88;;;1.38;;
37379;SDS011;23252;-33.992;18.480;2023-03-12T04:27:31;11.55;;;1.48;;
37379;SDS011;23252;-33.992;18.480;2023-03-12T04:29:58;13.18;;;1.98;;
37379;SDS011;23252;-33.992;18.480;2023-03-12T04:32:25;10.45;;;1.73;;
37379;SDS011;23252;-33.992;18.480;2023-03-12T04:34:51;11.70;;;1.45;;
37379;SDS011;23252;-33.992;18.480;2023-03-12T04:37:18;13.38;;;1.83;;
37379;SDS011;23252;-33.992;18.480;2023-03-12T04:39:44;18.25;;;1.85;;
37379;SDS011;23252;-33.992;18.480;2023-03-12T04:42:11;10.15;;;1.42;;
37379;SDS011;23252;-33.992;18.480;2023-03-12T04:44:38;14.35;;;2.33;;
37379;SDS011;23252;-33.992;18.480;2023-03-12T04:47:05;10.23;;;1.30;;
37379;SDS011;23252;-33.992;18.480;2023-03-12T04:49:31;12.67;;;1.53;;
37379;SDS011;23252;-33.992;18.480;2023-03-12T04:51:58;13.63;;;1.25;;
37379;SDS011;23252;-33.992;18.480;2023-03-12T04:54:24;14.43;;;1.55;;
37379;SDS011;23252;-33.992;18.480;2023-03-12T04:56:51;8.93;;;1.37;;
37379;SDS011;23252;-33.992;18.480;2023-03-12T04:59:17;12.47;;;1.47;;
37379;SDS011;23252;-33.992;18.480;2023-03-12T05:01:44;11.47;;;1.30;;
37379;SDS011;23252;-33.992;18.480;2023-03-12T05:04:10;11.40;;;1.73;;
37379;SDS011;23252;-33.992;18.480;2023-03-12T05:06:37;11.23;;;1.57;;
37379;SDS011;23252;-33.992;18.480;2023-03-12T05:09:03;12.45;;;1.80;;
37379;SDS011;23252;-33.992;18.480;2023-03-12T05:11:30;13.77;;;1.97;;
37379;SDS011;23252;-33.992;18.480;2023-03-12T05:13:56;11.65;;;1.98;;
37379;SDS011;23252;-33.992;18.480;2023-03-12T05:16:23;12.80;;;1.30;;
37379;SDS011;23252;-33.992;18.480;2023-03-12T05:18:49;15.80;;;2.33;;
37379;SDS011;23252;-33.992;18.480;2023-03-12T05:21:17;12.65;;;1.98;;
37379;SDS011;23252;-33.992;18.480;2023-03-12T05:23:45;11.00;;;1.40;;
37379;SDS011;23252;-33.992;18.480;2023-03-12T05:26:19;11.65;;;1.38;;
37379;SDS011;23252;-33.992;18.480;2023-03-12T05:28:48;13.35;;;1.90;;
37379;SDS011;23252;-33.992;18.480;2023-03-12T05:31:15;10.90;;;1.75;;
37379;SDS011;23252;-33.992;18.480;2023-03-12T05:33:42;12.60;;;1.52;;
37379;SDS011;23252;-33.992;18.480;2023-03-12T05:36:09;9.05;;;1.63;;
37379;SDS011;23252;-33.992;18.480;2023-03-12T05:38:36;15.18;;;1.58;;
37379;SDS011;23252;-33.992;18.480;2023-03-12T05:41:04;15.82;;;2.13;;
37379;SDS011;23252;-33.992;18.480;2023-03-12T05:43:31;13.70;;;2.53;;
37379;SDS011;23252;-33.992;18.480;2023-03-12T05:46:03;11.98;;;2.22;;
37379;SDS011;23252;-33.992;18.480;2023-03-12T05:48:30;13.70;;;2.08;;
37379;SDS011;23252;-33.992;18.480;2023-03-12T05:50:56;10.85;;;1.88;;
37379;SDS011;23252;-33.992;18.480;2023-03-12T05:53:23;11.52;;;1.75;;
37379;SDS011;23252;-33.992;18.480;2023-03-12T05:55:50;16.23;;;2.47;;
37379;SDS011;23252;-33.992;18.480;2023-03-12T05:58:16;9.77;;;1.40;;
37379;SDS011;23252;-33.992;18.480;2023-03-12T06:00:43;12.20;;;2.17;;
37379;SDS011;23252;-33.992;18.480;2023-03-12T08:15:28;10.52;;;1.88;;
37379;SDS011;23252;-33.992;18.480;2023-03-12T08:17:54;7.38;;;2.03;;
37379;SDS011;23252;-33.992;18.480;2023-03-12T08:20:21;7.70;;;1.70;;
37379;SDS011;23252;-33.992;18.480;2023-03-12T08:22:47;13.32;;;1.90;;
37379;SDS011;23252;-33.992;18.480;2023-03-12T08:25:14;8.90;;;1.73;;
37379;SDS011;23252;-33.992;18.480;2023-03-12T08:27:42;10.02;;;2.42;;
37379;SDS011;23252;-33.992;18.480;2023-03-12T08:30:09;7.13;;;1.47;;
37379;SDS011;23252;-33.992;18.480;2023-03-12T08:32:36;7.38;;;2.00;;
37379;SDS011;23252;-33.992;18.480;2023-03-12T08:35:02;10.73;;;1.90;;
37379;SDS011;23252;-33.992;18.480;2023-03-12T08:37:30;10.00;;;2.15;;
37379;SDS011;23252;-33.992;18.480;2023-03-12T08:39:57;12.98;;;1.75;;
37379;SDS011;23252;-33.992;18.480;2023-03-12T08:42:24;9.88;;;1.70;;
37379;SDS011;23252;-33.992;18.480;2023-03-12T08:44:51;10.45;;;1.90;;
37379;SDS011;23252;-33.992;18.480;2023-03-12T08:47:17;10.88;;;1.92;;
37379;SDS011;23252;-33.992;18.480;2023-03-12T08:49:44;9.68;;;2.00;;
37379;SDS011;23252;-33.992;18.480;2023-03-12T08:52:10;7.30;;;1.93;;
37379;SDS011;23252;-33.992;18.480;2023-03-12T08:54:37;7.18;;;1.42;;
37379;SDS011;23252;-33.992;18.480;2023-03-12T08:57:03;12.43;;;1.83;;
37379;SDS011;23252;-33.992;18.480;2023-03-12T08:59:30;19.08;;;1.92;;
37379;SDS011;23252;-33.992;18.480;2023-03-12T09:01:56;15.43;;;2.13;;
37379;SDS011;23252;-33.992;18.480;2023-03-12T09:04:23;14.13;;;2.17;;
37379;SDS011;23252;-33.992;18.480;2023-03-12T09:06:49;10.97;;;1.90;;
37379;SDS011;23252;-33.992;18.480;2023-03-12T09:09:15;10.80;;;2.30;;
37379;SDS011;23252;-33.992;18.480;2023-03-12T09:11:42;12.03;;;1.70;;
37379;SDS011;23252;-33.992;18.480;2023-03-12T09:14:09;14.00;;;1.90;;
37379;SDS011;23252;-33.992;18.480;2023-03-12T09:16:36;9.70;;;1.77;;
37379;SDS011;23252;-33.992;18.480;2023-03-12T09:19:02;11.73;;;2.30;;
37379;SDS011;23252;-33.992;18.480;2023-03-12T09:21:29;11.20;;;1.77;;
37379;SDS011;23252;-33.992;18.480;2023-03-12T09:23:55;8.52;;;1.50;;
37379;SDS011;23252;-33.992;18.480;2023-03-12T09:26:22;9.18;;;1.60;;
37379;SDS011;23252;-33.992;18.480;2023-03-12T09:28:48;13.20;;;2.35;;
37379;SDS011;23252;-33.992;18.480;2023-03-12T09:31:15;14.70;;;2.28;;
37379;SDS011;23252;-33.992;18.480;2023-03-12T09:33:41;10.43;;;2.33;;
37379;SDS011;23252;-33.992;18.480;2023-03-12T09:36:08;16.40;;;2.03;;
37379;SDS011;23252;-33.992;18.480;2023-03-12T09:38:35;7.28;;;1.70;;
37379;SDS011;23252;-33.992;18.480;2023-03-12T09:43:42;9.80;;;2.10;;
37379;SDS011;23252;-33.992;18.480;2023-03-12T09:46:27;11.68;;;2.28;;
37379;SDS011;23252;-33.992;18.480;2023-03-12T09:49:04;12.32;;;2.10;;
37379;SDS011;23252;-33.992;18.480;2023-03-12T09:51:46;15.57;;;1.83;;
37379;SDS011;23252;-33.992;18.480;2023-03-12T09:54:32;11.50;;;1.77;;
37379;SDS011;23252;-33.992;18.480;2023-03-12T09:57:13;10.82;;;2.00;;
37379;SDS011;23252;-33.992;18.480;2023-03-12T09:59:49;9.15;;;2.13;;
37379;SDS011;23252;-33.992;18.480;2023-03-12T10:02:23;9.43;;;1.60;;
37379;SDS011;23252;-33.992;18.480;2023-03-12T10:08:09;5.82;;;1.35;;
37379;SDS011;23252;-33.992;18.480;2023-03-12T10:10:54;9.77;;;1.48;;
37379;SDS011;23252;-33.992;18.480;2023-03-12T10:16:39;10.07;;;2.22;;
37379;SDS011;23252;-33.992;18.480;2023-03-12T10:26:49;8.50;;;1.90;;
37379;SDS011;23252;-33.992;18.480;2023-03-12T10:29:23;7.10;;;1.88;;
37379;SDS011;23252;-33.992;18.480;2023-03-12T10:37:16;5.28;;;1.42;;
37379;SDS011;23252;-33.992;18.480;2023-03-12T10:39:48;9.13;;;2.00;;
37379;SDS011;23252;-33.992;18.480;2023-03-12T10:42:20;8.35;;;1.80;;
37379;SDS011;23252;-33.992;18.480;2023-03-12T10:44:51;10.02;;;1.95;;
37379;SDS011;23252;-33.992;18.480;2023-03-12T10:47:34;16.42;;;2.03;;
37379;SDS011;23252;-33.992;18.480;2023-03-12T10:52:46;14.30;;;2.28;;
37379;SDS011;23252;-33.992;18.480;2023-03-12T10:55:25;6.80;;;1.63;;
37379;SDS011;23252;-33.992;18.480;2023-03-12T10:57:54;9.80;;;2.13;;
37379;SDS011;23252;-33.992;18.480;2023-03-12T11:02:54;11.90;;;1.98;;
37379;SDS011;23252;-33.992;18.480;2023-03-12T11:05:48;11.23;;;1.70;;
37379;SDS011;23252;-33.992;18.480;2023-03-12T11:09:00;10.48;;;2.47;;
37379;SDS011;23252;-33.992;18.480;2023-03-12T11:11:29;9.38;;;2.08;;
37379;SDS011;23252;-33.992;18.480;2023-03-12T11:14:07;9.95;;;2.03;;
37379;SDS011;23252;-33.992;18.480;2023-03-12T11:16:43;9.02;;;1.70;;
37379;SDS011;23252;-33.992;18.480;2023-03-12T11:19:13;7.40;;;1.58;;
37379;SDS011;23252;-33.992;18.480;2023-03-12T11:21:57;12.85;;;1.83;;
37379;SDS011;23252;-33.992;18.480;2023-03-12T11:24:28;13.52;;;2.08;;
37379;SDS011;23252;-33.992;18.480;2023-03-12T11:30:06;11.93;;;2.22;;
37379;SDS011;23252;-33.992;18.480;2023-03-12T11:32:40;6.78;;;1.80;;
37379;SDS011;23252;-33.992;18.480;2023-03-12T11:35:11;7.22;;;1.77;;
37379;SDS011;23252;-33.992;18.480;2023-03-12T11:46:06;10.07;;;1.70;;
37379;SDS011;23252;-33.992;18.480;2023-03-12T11:48:45;14.05;;;2.10;;
37379;SDS011;23252;-33.992;18.480;2023-03-12T11:51:37;10.50;;;2.20;;
37379;SDS011;23252;-33.992;18.480;2023-03-12T11:56:54;10.45;;;2.05;;
37379;SDS011;23252;-33.992;18.480;2023-03-12T12:02:23;6.93;;;1.77;;
37379;SDS011;23252;-33.992;18.480;2023-03-12T12:10:53;10.27;;;1.83;;
37379;SDS011;23252;-33.992;18.480;2023-03-12T12:21:29;10.27;;;2.20;;
37379;SDS011;23252;-33.992;18.480;2023-03-12T12:35:20;8.90;;;1.85;;
37379;SDS011;23252;-33.992;18.480;2023-03-12T12:38:08;10.70;;;2.28;;
37379;SDS011;23252;-33.992;18.480;2023-03-12T12:41:09;10.18;;;2.80;;
37379;SDS011;23252;-33.992;18.480;2023-03-12T12:43:38;11.82;;;2.83;;
37379;SDS011;23252;-33.992;18.480;2023-03-12T12:48:51;16.27;;;2.70;;
37379;SDS011;23252;-33.992;18.480;2023-03-12T12:51:21;14.75;;;2.90;;
37379;SDS011;23252;-33.992;18.480;2023-03-12T13:01:56;15.75;;;3.47;;
37379;SDS011;23252;-33.992;18.480;2023-03-12T13:09:47;14.52;;;2.60;;
37379;SDS011;23252;-33.992;18.480;2023-03-12T13:15:00;11.50;;;2.60;;
37379;SDS011;23252;-33.992;18.480;2023-03-12T13:26:17;13.02;;;3.08;;
37379;SDS011;23252;-33.992;18.480;2023-03-12T13:29:20;13.85;;;2.90;;
37379;SDS011;23252;-33.992;18.480;2023-03-12T13:32:03;11.63;;;2.50;;
37379;SDS011;23252;-33.992;18.480;2023-03-12T13:34:51;11.95;;;2.65;;
37379;SDS011;23252;-33.992;18.480;2023-03-12T13:40:56;14.13;;;2.53;;
37379;SDS011;23252;-33.992;18.480;2023-03-12T13:48:25;13.50;;;2.80;;
37379;SDS011;23252;-33.992;18.480;2023-03-12T13:50:53;13.45;;;2.95;;
37379;SDS011;23252;-33.992;18.480;2023-03-12T13:53:42;20.27;;;2.80;;
37379;SDS011;23252;-33.992;18.480;2023-03-12T13:56:24;17.98;;;2.97;;
37379;SDS011;23252;-33.992;18.480;2023-03-12T13:59:06;13.10;;;2.38;;
37379;SDS011;23252;-33.992;18.480;2023-03-12T16:16:54;18.40;;;2.80;;
37379;SDS011;23252;-33.992;18.480;2023-03-12T16:19:21;19.73;;;3.33;;
37379;SDS011;23252;-33.992;18.480;2023-03-12T16:21:53;22.30;;;3.17;;
37379;SDS011;23252;-33.992;18.480;2023-03-12T16:24:19;18.90;;;3.63;;
37379;SDS011;23252;-33.992;18.480;2023-03-12T16:29:18;23.70;;;4.53;;
37379;SDS011;23252;-33.992;18.480;2023-03-12T16:31:53;16.90;;;3.17;;
37379;SDS011;23252;-33.992;18.480;2023-03-12T16:34:20;15.43;;;3.38;;
37379;SDS011;23252;-33.992;18.480;2023-03-12T16:36:46;18.83;;;2.67;;
37379;SDS011;23252;-33.992;18.480;2023-03-12T16:39:13;19.70;;;3.43;;
37379;SDS011;23252;-33.992;18.480;2023-03-12T16:41:39;20.80;;;3.73;;
37379;SDS011;23252;-33.992;18.480;2023-03-12T16:44:06;10.60;;;2.80;;
37379;SDS011;23252;-33.992;18.480;2023-03-12T16:46:38;21.48;;;3.80;;
37379;SDS011;23252;-33.992;18.480;2023-03-12T16:49:05;23.13;;;3.08;;
37379;SDS011;23252;-33.992;18.480;2023-03-12T16:51:31;21.30;;;3.25;;
37379;SDS011;23252;-33.992;18.480;2023-03-12T16:53:58;22.90;;;3.80;;
37379;SDS011;23252;-33.992;18.480;2023-03-12T16:56:24;19.98;;;3.42;;
37379;SDS011;23252;-33.992;18.480;2023-03-12T16:58:52;21.35;;;3.58;;
37379;SDS011;23252;-33.992;18.480;2023-03-12T17:01:20;16.30;;;3.28;;
37379;SDS011;23252;-33.992;18.480;2023-03-12T17:03:48;17.73;;;3.70;;
37379;SDS011;23252;-33.992;18.480;2023-03-12T17:06:19;26.45;;;5.03;;
37379;SDS011;23252;-33.992;18.480;2023-03-12T17:08:47;24.00;;;3.67;;
37379;SDS011;23252;-33.992;18.480;2023-03-12T17:11:18;23.27;;;4.18;;
37379;SDS011;23252;-33.992;18.480;2023-03-12T17:13:55;17.52;;;4.30;;
37379;SDS011;23252;-33.992;18.480;2023-03-12T17:16:25;19.70;;;3.50;;
37379;SDS011;23252;-33.992;18.480;2023-03-12T17:18:52;26.20;;;3.72;;
37379;SDS011;23252;-33.992;18.480;2023-03-12T17:21:21;18.40;;;3.10;;
37379;SDS011;23252;-33.992;18.480;2023-03-12T17:23:56;18.98;;;3.80;;
37379;SDS011;23252;-33.992;18.480;2023-03-12T17:26:23;27.97;;;3.90;;
37379;SDS011;23252;-33.992;18.480;2023-03-12T17:28:49;21.98;;;4.03;;
37379;SDS011;23252;-33.992;18.480;2023-03-12T17:31:16;25.65;;;4.25;;
37379;SDS011;23252;-33.992;18.480;2023-03-12T17:33:42;16.77;;;3.30;;
37379;SDS011;23252;-33.992;18.480;2023-03-12T17:36:09;15.35;;;3.10;;
37379;SDS011;23252;-33.992;18.480;2023-03-12T17:38:36;20.42;;;2.92;;
37379;SDS011;23252;-33.992;18.480;2023-03-12T17:41:02;17.70;;;2.97;;
37379;SDS011;23252;-33.992;18.480;2023-03-12T17:43:32;26.77;;;3.88;;
37379;SDS011;23252;-33.992;18.480;2023-03-12T17:46:06;20.58;;;3.20;;
37379;SDS011;23252;-33.992;18.480;2023-03-12T17:48:34;26.45;;;3.33;;
37379;SDS011;23252;-33.992;18.480;2023-03-12T17:51:05;19.70;;;3.35;;
37379;SDS011;23252;-33.992;18.480;2023-03-12T17:53:32;21.15;;;3.60;;
37379;SDS011;23252;-33.992;18.480;2023-03-12T17:55:59;16.35;;;3.05;;
37379;SDS011;23252;-33.992;18.480;2023-03-12T17:58:33;22.23;;;4.07;;
37379;SDS011;23252;-33.992;18.480;2023-03-12T18:00:59;21.05;;;4.25;;
37379;SDS011;23252;-33.992;18.480;2023-03-12T18:03:26;22.13;;;4.07;;
37379;SDS011;23252;-33.992;18.480;2023-03-12T18:05:52;17.63;;;3.83;;
37379;SDS011;23252;-33.992;18.480;2023-03-12T18:08:19;20.90;;;3.78;;
37379;SDS011;23252;-33.992;18.480;2023-03-12T18:10:46;17.10;;;3.10;;
37379;SDS011;23252;-33.992;18.480;2023-03-12T18:13:13;26.05;;;4.35;;
37379;SDS011;23252;-33.992;18.480;2023-03-12T18:15:40;25.48;;;3.38;;
37379;SDS011;23252;-33.992;18.480;2023-03-12T18:18:07;19.48;;;3.28;;
37379;SDS011;23252;-33.992;18.480;2023-03-12T18:20:33;21.77;;;3.17;;
37379;SDS011;23252;-33.992;18.480;2023-03-12T18:23:00;22.88;;;3.55;;
37379;SDS011;23252;-33.992;18.480;2023-03-12T18:25:26;20.83;;;3.03;;
37379;SDS011;23252;-33.992;18.480;2023-03-12T18:27:53;24.33;;;3.00;;
37379;SDS011;23252;-33.992;18.480;2023-03-12T18:30:19;17.35;;;3.08;;
37379;SDS011;23252;-33.992;18.480;2023-03-12T18:32:46;24.83;;;3.67;;
37379;SDS011;23252;-33.992;18.480;2023-03-12T18:35:12;22.57;;;3.30;;
37379;SDS011;23252;-33.992;18.480;2023-03-12T18:40:31;17.73;;;2.88;;
37379;SDS011;23252;-33.992;18.480;2023-03-12T18:43:00;18.52;;;3.00;;
37379;SDS011;23252;-33.992;18.480;2023-03-12T18:45:27;23.50;;;3.65;;
37379;SDS011;23252;-33.992;18.480;2023-03-12T18:47:54;16.65;;;3.20;;
37379;SDS011;23252;-33.992;18.480;2023-03-12T18:50:21;22.48;;;3.28;;
37379;SDS011;23252;-33.992;18.480;2023-03-12T18:52:48;24.05;;;3.40;;
37379;SDS011;23252;-33.992;18.480;2023-03-12T18:55:14;22.17;;;3.30;;
37379;SDS011;23252;-33.992;18.480;2023-03-12T18:57:41;23.02;;;4.03;;
37379;SDS011;23252;-33.992;18.480;2023-03-12T19:00:12;24.73;;;4.28;;
37379;SDS011;23252;-33.992;18.480;2023-03-12T19:02:43;18.08;;;3.20;;
37379;SDS011;23252;-33.992;18.480;2023-03-12T19:05:11;16.70;;;3.70;;
37379;SDS011;23252;-33.992;18.480;2023-03-12T19:07:38;23.30;;;3.80;;
37379;SDS011;23252;-33.992;18.480;2023-03-12T19:12:32;17.70;;;3.40;;
37379;SDS011;23252;-33.992;18.480;2023-03-12T19:15:01;29.60;;;4.55;;
37379;SDS011;23252;-33.992;18.480;2023-03-12T19:17:28;21.95;;;4.03;;
37379;SDS011;23252;-33.992;18.480;2023-03-12T19:19:55;21.15;;;3.60;;
37379;SDS011;23252;-33.992;18.480;2023-03-12T19:22:21;20.35;;;3.42;;
37379;SDS011;23252;-33.992;18.480;2023-03-12T19:24:48;19.53;;;3.67;;
37379;SDS011;23252;-33.992;18.480;2023-03-12T19:27:14;17.83;;;3.20;;
37379;SDS011;23252;-33.992;18.480;2023-03-12T19:29:41;20.77;;;3.55;;
37379;SDS011;23252;-33.992;18.480;2023-03-12T19:32:07;17.40;;;3.83;;
37379;SDS011;23252;-33.992;18.480;2023-03-12T19:34:34;18.40;;;3.15;;
37379;SDS011;23252;-33.992;18.480;2023-03-12T19:37:00;15.80;;;3.07;;
37379;SDS011;23252;-33.992;18.480;2023-03-12T19:39:27;17.93;;;2.63;;
37379;SDS011;23252;-33.992;18.480;2023-03-12T19:41:53;19.67;;;3.28;;
37379;SDS011;23252;-33.992;18.480;2023-03-12T19:44:20;20.75;;;4.00;;
37379;SDS011;23252;-33.992;18.480;2023-03-12T19:46:46;21.33;;;4.00;;
37379;SDS011;23252;-33.992;18.480;2023-03-12T19:49:13;16.67;;;2.80;;
37379;SDS011;23252;-33.992;18.480;2023-03-12T19:51:39;18.23;;;3.77;;
37379;SDS011;23252;-33.992;18.480;2023-03-12T19:54:06;20.40;;;3.45;;
37379;SDS011;23252;-33.992;18.480;2023-03-12T19:56:33;20.45;;;3.65;;
37379;SDS011;23252;-33.992;18.480;2023-03-12T19:58:59;18.88;;;3.67;;
37379;SDS011;23252;-33.992;18.480;2023-03-12T20:01:26;19.45;;;3.35;;
37379;SDS011;23252;-33.992;18.480;2023-03-12T20:03:53;19.73;;;3.70;;
37379;SDS011;23252;-33.992;18.480;2023-03-12T20:06:19;19.65;;;3.13;;
37379;SDS011;23252;-33.992;18.480;2023-03-12T20:08:46;22.08;;;3.10;;
37379;SDS011;23252;-33.992;18.480;2023-03-12T20:11:13;19.65;;;3.35;;
37379;SDS011;23252;-33.992;18.480;2023-03-12T20:13:39;21.23;;;4.07;;
37379;SDS011;23252;-33.992;18.480;2023-03-12T20:16:06;31.60;;;4.90;;
37379;SDS011;23252;-33.992;18.480;2023-03-12T20:18:33;16.98;;;3.08;;
37379;SDS011;23252;-33.992;18.480;2023-03-12T20:20:59;24.35;;;4.15;;
37379;SDS011;23252;-33.992;18.480;2023-03-12T20:23:26;21.67;;;3.60;;
37379;SDS011;23252;-33.992;18.480;2023-03-12T20:25:52;21.50;;;3.80;;
37379;SDS011;23252;-33.992;18.480;2023-03-12T20:28:19;22.93;;;3.77;;
37379;SDS011;23252;-33.992;18.480;2023-03-12T20:30:45;29.07;;;4.10;;
37379;SDS011;23252;-33.992;18.480;2023-03-12T20:33:12;23.30;;;3.70;;
37379;SDS011;23252;-33.992;18.480;2023-03-12T20:35:39;22.63;;;3.58;;
37379;SDS011;23252;-33.992;18.480;2023-03-12T20:38:05;19.17;;;3.00;;
37379;SDS011;23252;-33.992;18.480;2023-03-12T20:40:32;32.25;;;4.53;;
37379;SDS011;23252;-33.992;18.480;2023-03-12T20:42:59;20.93;;;3.17;;
37379;SDS011;23252;-33.992;18.480;2023-03-12T20:45:31;21.10;;;4.57;;
37379;SDS011;23252;-33.992;18.480;2023-03-12T20:47:59;21.17;;;3.10;;
37379;SDS011;23252;-33.992;18.480;2023-03-12T20:50:26;23.10;;;3.00;;
37379;SDS011;23252;-33.992;18.480;2023-03-12T20:52:53;19.88;;;3.85;;
37379;SDS011;23252;-33.992;18.480;2023-03-12T20:55:20;22.38;;;3.45;;
37379;SDS011;23252;-33.992;18.480;2023-03-12T20:57:46;25.52;;;3.67;;